Latest Weather Observations for Dartmoor

IDV60801

Issued at 6:02 am EDT Tuesday 23 December 2014 (issued every 30 minutes, with the page automatically refreshed every 10 minutes)

About weather observations | Map of weather stations | Latest weather observations for VIC | Other Formats
Station Details ID: 090194 Name: DARTMOOR Lat: -37.92 Lon: 141.26 Height: 51.0 m
Data from the previous 72 hours. | See also: Recent months at Dartmoor
Date/Time
EDT
Temp
°C
App
Temp
°C
Dew
Point
Rel
Hum
%
Delta-T
°C
Wind Press
QNH
hPa
Press
MSL
hPa
Rain
since 9 am
mm
Dir
 
Spd
km/h
Gust
km/h
Spd
kts
Gust
kts
23/06:00am 16.2 16.9 16.2 100 0.0 WNW 7 13 4 7 1008.5 1008.4 0.4
23/05:30am 16.3 16.7 16.3 100 0.0 WNW 9 13 5 7 1008.4 1008.3 0.4
23/05:00am 16.6 17.1 16.6 100 0.0 WNW 9 17 5 9 1008.2 1008.1 0.4
23/04:30am 17.2 18.0 17.2 100 0.0 NW 9 13 5 7 1007.7 1007.7 0.4
23/04:00am 17.3 18.1 17.3 100 0.0 N 9 11 5 6 1007.5 1007.5 0.4
23/03:30am 17.3 17.7 17.3 100 0.0 N 11 15 6 8 1007.4 1007.4 0.4
23/03:00am 17.2 18.0 17.2 100 0.0 N 9 13 5 7 1007.5 1007.5 0.4
23/02:30am 17.2 18.0 17.2 100 0.0 NNE 9 13 5 7 1007.6 1007.6 0.4
23/02:00am 17.0 18.6 17.0 100 0.0 N 4 7 2 4 1008.1 1008.0 0.4
23/01:30am 17.1 19.5 17.1 100 0.0 CALM 0 0 0 0 1008.2 1008.1 0.4
23/01:00am 17.3 19.8 17.3 100 0.0 CALM 0 0 0 0 1008.0 1007.9 0.2
23/12:30am 17.5 19.7 17.5 100 0.0 SSW 2 6 1 3 1008.0 1007.9 0.0
23/12:00am 17.9 20.7 17.9 100 0.0 CALM 0 0 0 0 1008.4 1008.3 0.0
 
Date/Time
EDT
Temp
°C
App
Temp
°C
Dew
Point
Rel
Hum
%
Delta-T
°C
Wind Press
QNH
hPa
Press
MSL
hPa
Rain
since 9 am
mm
Dir
 
Spd
km/h
Gust
km/h
Spd
kts
Gust
kts
22/11:30pm 18.0 19.7 18.0 100 0.0 W 6 6 3 3 1008.4 1008.3 0.0
22/11:00pm 18.5 20.4 18.5 100 0.0 WSW 6 11 3 6 1008.1 1008.0 0.0
22/10:30pm 19.0 19.9 18.5 97 0.3 W 11 13 6 7 1008.3 1008.2 0.0
22/10:00pm 19.2 20.6 18.7 97 0.3 W 9 13 5 7 1008.3 1008.2 0.0
22/09:30pm 19.6 22.8 18.8 95 0.5 CALM 0 0 0 0 1008.3 1008.2 0.0
22/09:00pm 20.4 23.0 17.6 84 1.7 CALM 0 0 0 0 1008.2 1008.1 0.0
22/08:30pm 21.0 23.6 17.4 80 2.2 CALM 0 0 0 0 1008.0 1007.9 0.0
22/08:00pm 21.2 22.5 17.2 78 2.5 WSW 6 9 3 5 1008.0 1007.9 0.0
22/07:30pm 21.9 23.3 17.3 75 2.8 W 6 7 3 4 1007.7 1007.7 0.0
22/07:00pm 22.6 23.9 17.1 71 3.4 WNW 6 9 3 5 1007.4 1007.4 0.0
22/06:30pm 22.9 24.0 17.1 70 3.6 WSW 7 9 4 5 1007.0 1007.0 0.0
22/06:00pm 23.0 24.2 16.8 68 3.8 S 6 7 3 4 1006.6 1006.6 0.0
22/05:30pm 22.9 22.2 16.4 67 4.0 SW 15 20 8 11 1006.6 1006.6 0.0
22/05:00pm 23.4 23.2 16.7 66 4.1 SW 13 24 7 13 1006.9 1006.9 0.0
22/04:30pm 25.4 25.7 17.1 60 5.2 SW 11 15 6 8 1006.8 1006.8 0.0
22/04:00pm 27.3 27.9 15.7 49 7.1 SW 7 13 4 7 1006.9 1006.9 0.0
22/03:30pm 26.8 27.1 14.9 48 7.2 SSE 7 13 4 7 1006.3 1006.3 0.0
22/03:00pm 25.7 24.7 14.5 50 6.7 E 13 22 7 12 1006.4 1006.4 0.0
22/02:30pm 25.0 25.5 15.6 56 5.7 ESE 7 13 4 7 1007.5 1007.5 0.0
22/02:00pm 24.6 25.6 16.3 60 5.1 E 6 11 3 6 1008.4 1008.3 0.0
22/01:30pm 23.7 25.0 17.0 66 4.1 ESE 6 11 3 6 1009.0 1008.9 0.0
22/01:00pm 21.6 22.6 16.3 72 3.2 ESE 6 7 3 4 1009.4 1009.3 0.0
22/12:30pm 21.3 22.5 16.0 72 3.2 SW 4 11 2 6 1009.4 1009.3 0.0
22/12:00pm 20.8 19.8 16.6 77 2.6 ENE 17 26 9 14 1008.9 1008.8 0.0
22/11:30am 19.8 18.3 16.3 80 2.1 ENE 19 26 10 14 1008.8 1008.7 0.0
22/11:00am 19.1 19.2 16.5 85 1.6 NE 11 24 6 13 1009.7 1009.6 0.0
22/10:30am 18.3 17.1 16.1 87 1.3 ENE 17 26 9 14 1009.7 1009.6 0.0
22/10:00am 18.0 17.1 15.8 87 1.3 E 15 24 8 13 1009.6 1009.5 0.0
22/09:30am 17.8 15.9 15.8 88 1.2 E 20 30 11 16 1009.9 1009.8 0.0
22/09:00am 17.4 16.2 16.1 92 0.8 E 17 26 9 14 1009.9 1009.8 0.0
22/08:30am 17.1 16.6 16.8 98 0.2 E 15 22 8 12 1009.9 1009.8 0.0
22/08:00am 16.5 14.9 16.5 100 0.0 E 20 41 11 22 1009.7 1009.6 0.0
22/07:30am 16.0 13.1 16.0 100 0.0 E 26 43 14 23 1009.4 1009.3 0.0
22/07:09am 15.6 11.4 15.6 100 0.0 SE 32 50 17 27 1009.4 1009.3 0.0
22/07:00am 15.3 9.6 15.3 100 0.0 SE 39 50 21 27 1008.6 1008.5 0.0
22/06:49am 15.2 11.6 15.2 100 0.0 SE 28 43 15 23 1009.8 1009.7 0.0
22/06:30am 15.1 14.3 15.1 100 0.0 ESE 13 19 7 10 1011.5 1011.4 0.0
22/06:00am 15.2 14.8 15.2 100 0.0 SSE 11 22 6 12 1011.3 1011.2 0.0
22/05:30am 15.2 15.6 15.2 100 0.0 S 7 17 4 9 1012.2 1012.1 0.0
22/05:00am 15.2 14.8 15.2 100 0.0 SSE 11 17 6 9 1011.6 1011.5 0.0
22/04:30am 15.3 14.6 15.3 100 0.0 ESE 13 19 7 10 1011.1 1011.0 0.0
22/04:00am 15.3 13.8 15.3 100 0.0 E 17 24 9 13 1011.4 1011.3 0.0
22/03:30am 15.3 14.2 15.3 100 0.0 E 15 30 8 16 1011.5 1011.4 0.0
22/03:00am 15.4 13.6 15.4 100 0.0 ESE 19 28 10 15 1011.7 1011.6 0.0
22/02:30am 15.3 13.2 15.3 100 0.0 ESE 20 28 11 15 1012.0 1011.9 0.0
22/02:00am 15.1 13.5 15.1 100 0.0 SE 17 22 9 12 1012.8 1012.7 0.0
22/01:30am 15.3 14.2 15.3 100 0.0 SE 15 20 8 11 1013.3 1013.2 0.0
22/01:00am 15.6 14.6 15.6 100 0.0 SE 15 19 8 10 1013.8 1013.7 0.0
22/12:30am 15.5 14.8 15.5 100 0.0 ESE 13 20 7 11 1014.2 1014.1 0.0
22/12:00am 15.6 13.8 15.6 100 0.0 SE 19 24 10 13 1014.3 1014.2 0.0
 
Date/Time
EDT
Temp
°C
App
Temp
°C
Dew
Point
Rel
Hum
%
Delta-T
°C
Wind Press
QNH
hPa
Press
MSL
hPa
Rain
since 9 am
mm
Dir
 
Spd
km/h
Gust
km/h
Spd
kts
Gust
kts
21/11:30pm 15.7 14.3 15.5 99 0.1 SE 17 26 9 14 1014.4 1014.3 0.0
21/11:00pm 15.7 14.2 15.4 98 0.2 SE 17 24 9 13 1014.8 1014.7 0.0
21/10:30pm 15.7 14.2 15.2 97 0.3 SE 17 24 9 13 1014.8 1014.7 0.0
21/10:00pm 15.8 13.6 15.0 95 0.5 SE 20 28 11 15 1014.4 1014.3 0.0
21/09:30pm 16.0 13.7 14.7 92 0.7 SE 20 28 11 15 1014.3 1014.2 0.0
21/09:00pm 16.4 13.3 14.6 89 1.0 SE 24 30 13 16 1014.1 1014.0 0.0
21/08:30pm 17.3 14.7 14.8 85 1.4 ESE 22 30 12 16 1013.8 1013.7 0.0
21/08:00pm 18.7 16.5 15.0 79 2.2 SSE 20 32 11 17 1013.5 1013.4 0.0
21/07:30pm 18.8 17.3 15.3 80 2.1 S 17 24 9 13 1013.1 1013.0 0.0
21/07:00pm 19.8 16.7 14.6 72 3.0 SSW 24 32 13 17 1012.8 1012.7 0.0
21/06:30pm 21.6 18.8 12.5 56 5.2 SSW 19 26 10 14 1012.3 1012.2 0.0
21/06:00pm 24.1 21.1 11.8 46 7.0 SSW 19 28 10 15 1012.3 1012.2 0.0
21/05:30pm 24.0 20.8 11.3 45 7.1 SSW 19 26 10 14 1012.5 1012.4 0.0
21/05:00pm 24.9 22.0 12.2 45 7.3 SSW 19 26 10 14 1012.5 1012.4 0.0
21/04:30pm 26.5 23.6 12.2 41 8.3 SSW 19 28 10 15 1012.5 1012.4 0.0
21/04:00pm 26.1 23.2 12.2 42 8.0 SSW 19 26 10 14 1012.8 1012.7 0.0
21/03:30pm 26.6 23.7 12.3 41 8.3 SSW 19 26 10 14 1012.8 1012.7 0.0
21/03:00pm 26.7 24.3 12.7 42 8.2 SSW 17 22 9 12 1013.0 1012.9 0.0
21/02:30pm 25.8 23.2 13.3 46 7.3 SSW 19 30 10 16 1013.3 1013.2 0.0
21/02:00pm 27.2 26.1 14.2 44 7.8 SSW 13 19 7 10 1013.4 1013.3 0.0
21/01:30pm 25.9 24.5 14.4 49 6.9 S 15 24 8 13 1013.6 1013.5 0.0
21/01:00pm 24.8 22.4 13.7 50 6.5 SSW 19 30 10 16 1014.0 1013.9 0.0
21/12:30pm 24.6 21.3 12.9 48 6.8 SSW 22 32 12 17 1014.0 1013.9 0.0
21/12:00pm 25.2 21.9 12.8 46 7.2 SSW 22 30 12 16 1014.1 1014.0 0.0
21/11:30am 26.1 24.2 12.9 44 7.7 SSW 15 20 8 11 1013.8 1013.7 0.0
21/11:00am 25.4 23.8 12.9 45 7.3 WSW 13 24 7 13 1013.9 1013.8 0.0
21/10:30am 24.6 23.3 12.5 46 7.0 WSW 11 17 6 9 1013.6 1013.5 0.0
21/10:00am 23.8 23.3 12.1 48 6.7 NNW 6 13 3 7 1013.5 1013.4 0.0
21/09:30am 21.5 22.0 12.9 58 4.9 N 2 9 1 5 1013.5 1013.4 0.0
21/09:00am 20.1 20.0 13.8 67 3.6 N 7 13 4 7 1013.5 1013.4 0.0
21/08:30am 17.0 18.4 14.5 85 1.4 CALM 0 0 0 0 1013.4 1013.3 0.0
21/08:00am 14.8 16.4 14.8 100 0.0 CALM 0 0 0 0 1013.3 1013.2 0.0
21/07:30am 12.4 13.2 12.4 100 0.0 CALM 0 0 0 0 1013.1 1013.0 0.0
21/07:00am 11.0 11.3 11.0 100 0.0 CALM 0 0 0 0 1012.9 1012.8 0.0
21/06:30am 10.1 10.2 10.1 100 0.0 CALM 0 0 0 0 1012.8 1012.7 0.0
21/06:00am 9.6 9.5 9.6 100 0.0 CALM 0 2 0 1 1012.9 1012.8 0.0
21/05:30am 9.8 9.0 9.8 100 0.0 E 4 4 2 2 1012.6 1012.5 0.0
21/05:00am 10.0 8.7 10.0 100 0.0 E 7 9 4 5 1012.6 1012.5 0.0
21/04:30am 9.6 9.5 9.6 100 0.0 CALM 0 0 0 0 1013.1 1013.0 0.0
21/04:00am 9.7 9.7 9.7 100 0.0 CALM 0 0 0 0 1013.5 1013.4 0.0
21/03:30am 10.2 10.3 10.2 100 0.0 CALM 0 0 0 0 1013.8 1013.7 0.0
21/03:00am 11.5 11.2 11.5 100 0.0 ENE 4 6 2 3 1013.6 1013.5 0.0
21/02:30am 11.3 11.7 11.3 100 0.0 CALM 0 0 0 0 1013.6 1013.5 0.0
21/02:00am 11.2 11.6 11.2 100 0.0 CALM 0 0 0 0 1014.1 1014.0 0.0
21/01:30am 11.5 10.8 11.5 100 0.0 E 6 7 3 4 1014.7 1014.6 0.0
21/01:00am 11.6 11.0 11.6 100 0.0 SE 6 7 3 4 1015.3 1015.2 0.0
21/12:30am 11.5 10.6 11.5 100 0.0 SE 7 9 4 5 1015.9 1015.8 0.0
21/12:00am 12.0 11.3 12.0 100 0.0 SE 7 9 4 5 1016.3 1016.2 0.0
 
Date/Time
EDT
Temp
°C
App
Temp
°C
Dew
Point
Rel
Hum
%
Delta-T
°C
Wind Press
QNH
hPa
Press
MSL
hPa
Rain
since 9 am
mm
Dir
 
Spd
km/h
Gust
km/h
Spd
kts
Gust
kts
20/11:30pm 12.3 11.7 12.3 100 0.0 SE 7 9 4 5 1016.7 1016.6 0.0
20/11:00pm 12.7 11.6 11.9 95 0.4 SE 9 9 5 5 1016.9 1016.8 0.0
20/10:30pm 13.5 12.4 12.1 91 0.8 SE 9 11 5 6 1017.0 1016.9 0.0
20/10:00pm 14.1 13.3 11.6 85 1.3 SE 7 11 4 6 1017.1 1017.0 0.0
20/09:30pm 15.0 13.8 11.6 80 1.8 S 9 13 5 7 1017.0 1016.9 0.0
20/09:00pm 15.9 13.8 11.1 73 2.6 S 13 15 7 8 1016.9 1016.8 0.0
20/08:30pm 17.2 15.0 10.8 66 3.4 SSW 13 17 7 9 1017.0 1016.9 0.0
20/08:00pm 18.6 15.6 10.7 60 4.3 SSW 17 22 9 12 1016.8 1016.7 0.0
20/07:30pm 19.6 17.1 11.1 58 4.7 SSW 15 22 8 12 1016.6 1016.5 0.0
20/07:00pm 20.0 17.0 10.7 55 5.1 SSW 17 20 9 11 1016.3 1016.2 0.0
20/06:30pm 21.0 18.2 11.3 54 5.4 SSW 17 24 9 13 1016.2 1016.1 0.0
20/06:00pm 21.2 18.7 11.0 52 5.6 SSW 15 22 8 12 1016.4 1016.3 0.0
20/05:30pm 22.1 19.1 10.6 48 6.3 SSW 17 22 9 12 1016.5 1016.4 0.0
20/05:00pm 21.7 18.7 10.5 49 6.1 SSW 17 26 9 14 1016.8 1016.7 0.0
20/04:30pm 22.2 19.2 10.7 48 6.3 SSW 17 28 9 15 1016.9 1016.8 0.0
20/04:00pm 23.4 21.3 11.1 46 6.9 SSW 13 22 7 12 1017.2 1017.1 0.0
20/03:30pm 22.8 20.9 10.6 46 6.7 SW 11 24 6 13 1017.6 1017.5 0.0
20/03:00pm 22.0 19.5 11.1 50 6.0 SSW 15 24 8 13 1018.0 1017.9 0.0
20/02:30pm 21.6 19.3 10.4 49 6.1 SSW 13 24 7 13 1018.4 1018.3 0.0
20/02:00pm 22.3 20.4 11.7 51 5.9 SSW 13 26 7 14 1018.5 1018.4 0.0
20/01:30pm 21.2 19.0 10.7 51 5.8 WSW 13 24 7 13 1018.9 1018.8 0.0
20/01:00pm 21.0 18.1 11.1 53 5.4 SSW 17 28 9 15 1019.1 1019.0 0.0
20/12:30pm 20.9 19.5 11.0 53 5.4 S 9 19 5 10 1019.3 1019.2 0.0
20/12:00pm 20.1 17.8 10.5 54 5.2 SSW 13 20 7 11 1019.5 1019.4 0.0
20/11:30am 19.3 17.2 11.3 60 4.4 WSW 13 24 7 13 1019.7 1019.6 0.0
20/11:00am 18.6 17.3 11.4 63 3.9 W 9 20 5 11 1020.0 1019.9 0.0
20/10:30am 17.5 16.0 12.0 70 3.0 WSW 11 17 6 9 1020.1 1020.0 0.0
20/10:00am 17.4 16.4 12.3 72 2.8 W 9 15 5 8 1020.2 1020.1 0.0
20/09:30am 16.5 15.1 12.1 75 2.4 WSW 11 17 6 9 1020.1 1020.0 0.0
20/09:00am 15.0 16.4 14.5 97 0.3 CALM 0 6 0 3 1020.1 1020.0 0.0
20/08:30am 13.0 13.9 13.0 100 0.0 CALM 0 0 0 0 1019.7 1019.6 0.0
20/08:00am 11.7 12.2 11.7 100 0.0 CALM 0 0 0 0 1019.3 1019.2 0.0
20/07:30am 10.3 10.4 10.3 100 0.0 CALM 0 0 0 0 1018.9 1018.8 0.0
20/07:00am 9.5 9.4 9.5 100 0.0 CALM 0 0 0 0 1018.7 1018.6 0.0
20/06:30am 9.0 8.8 9.0 100 0.0 CALM 0 0 0 0 1018.6 1018.5 0.0

Other Formats:

Comma delimited format used in spreadsheet applications
http://www.bom.gov.au/fwo/IDV60801/IDV60801.95822.axf

JavaScript Object Notation format (JSON) in row-major order
http://www.bom.gov.au/fwo/IDV60801/IDV60801.95822.json